Time;durP1;ratioP1;P1;durP2;ratioP2;P2;SDS_P1;SDS_P2;PMS_P1;PMS_P2;Temp;Humidity;BMP_temperature;BMP_pressure;BME280_temperature;BME280_humidity;BME280_pressure;Samples;Min_cycle;Max_cycle;Signal;HPM_P1;HPM_P2
2022/09/29 00:00:36;;;;;;;6.50;4.15;;;11.00;99.90;;;;;;4932365;29;20025;-88
2022/09/29 00:03:03;;;;;;;5.03;4.63;;;11.00;99.90;;;;;;4931135;29;20039;-88
2022/09/29 00:05:29;;;;;;;5.03;4.28;;;11.10;99.90;;;;;;4930878;29;20064;-87
2022/09/29 00:07:55;;;;;;;7.28;4.53;;;11.00;99.90;;;;;;4930999;29;20028;-87
2022/09/29 00:10:22;;;;;;;4.03;3.72;;;11.00;99.90;;;;;;4932506;29;20032;-87
2022/09/29 00:12:49;;;;;;;5.43;4.93;;;11.00;99.90;;;;;;4932093;29;20040;-87
2022/09/29 00:15:15;;;;;;;5.28;4.78;;;11.00;99.90;;;;;;4930989;29;20070;-87
2022/09/29 00:17:41;;;;;;;4.90;4.40;;;11.00;99.90;;;;;;4930829;29;20036;-88
2022/09/29 00:20:08;;;;;;;6.22;4.55;;;11.00;99.90;;;;;;4914518;29;20060;-87
2022/09/29 00:22:34;;;;;;;4.10;3.85;;;11.00;99.90;;;;;;4930802;29;20036;-88
2022/09/29 00:24:59;;;;;;;4.85;3.67;;;11.00;99.90;;;;;;4930810;29;20032;-87
2022/09/29 00:27:25;;;;;;;5.18;3.88;;;10.90;99.90;;;;;;4930740;29;20044;-87
2022/09/29 00:29:51;;;;;;;4.07;3.78;;;10.90;99.90;;;;;;4914944;29;20102;-87
2022/09/29 00:32:17;;;;;;;4.80;4.20;;;10.90;99.90;;;;;;4915048;29;20060;-87
2022/09/29 00:34:43;;;;;;;5.00;4.57;;;10.80;99.90;;;;;;4930166;29;20032;-88
2022/09/29 00:37:09;;;;;;;11.38;4.88;;;10.80;99.90;;;;;;4930113;29;20043;-88
2022/09/29 00:39:35;;;;;;;6.72;4.93;;;10.80;99.90;;;;;;4914712;29;20117;-88
2022/09/29 00:42:01;;;;;;;4.80;4.32;;;10.80;99.90;;;;;;4930199;29;20036;-87
2022/09/29 00:44:49;;;;;;;5.90;4.05;;;10.80;99.90;;;;;;4930576;29;20051;-89
2022/09/29 00:47:17;;;;;;;4.57;4.22;;;10.80;99.90;;;;;;4931572;29;20039;-88
2022/09/29 00:50:00;;;;;;;4.10;3.80;;;10.80;99.90;;;;;;4930575;29;20032;-87
2022/09/29 00:52:32;;;;;;;3.90;3.60;;;10.70;99.90;;;;;;4930403;29;20036;-88
2022/09/29 00:54:59;;;;;;;5.05;4.57;;;10.70;99.90;;;;;;4929965;29;20405;-88
2022/09/29 00:57:30;;;;;;;5.30;4.80;;;10.70;99.90;;;;;;4913788;29;20087;-88
2022/09/29 01:00:01;;;;;;;6.32;5.82;;;10.70;99.90;;;;;;4931540;29;20028;-88
2022/09/29 01:02:29;;;;;;;4.53;4.13;;;10.70;99.90;;;;;;4945832;29;20035;-87
2022/09/29 01:04:55;;;;;;;5.47;4.82;;;10.70;99.90;;;;;;4914116;29;20039;-88
2022/09/29 01:07:24;;;;;;;4.20;3.85;;;10.70;99.90;;;;;;4930215;29;20032;-87
2022/09/29 01:09:52;;;;;;;5.07;4.60;;;10.70;99.90;;;;;;4931250;29;20034;-88
2022/09/29 01:12:19;;;;;;;6.80;6.00;;;10.60;99.90;;;;;;4929896;29;20044;-87
2022/09/29 01:14:46;;;;;;;4.97;4.57;;;10.60;99.90;;;;;;4929874;29;20498;-88
2022/09/29 01:17:12;;;;;;;7.25;4.43;;;10.60;99.90;;;;;;4929975;29;20031;-88
2022/09/29 01:20:04;;;;;;;4.93;4.53;;;10.60;99.90;;;;;;4929762;29;20028;-88
2022/09/29 01:22:56;;;;;;;4.88;4.38;;;10.60;99.90;;;;;;4913272;29;20036;-87
2022/09/29 01:26:10;;;;;;;4.68;4.28;;;10.60;99.90;;;;;;4918490;29;20089;-87
2022/09/29 01:29:01;;;;;;;4.00;3.53;;;10.60;99.90;;;;;;4927644;29;20076;-87
2022/09/29 01:31:41;;;;;;;4.75;4.35;;;10.60;99.90;;;;;;4913879;29;20036;-88
2022/09/29 01:34:31;;;;;;;5.10;4.60;;;10.50;99.90;;;;;;4929425;29;20131;-87
2022/09/29 01:37:05;;;;;;;6.40;5.80;;;10.50;99.90;;;;;;4929572;29;20489;-88
2022/09/29 01:39:46;;;;;;;3.60;3.30;;;10.50;99.90;;;;;;4932009;29;20024;-87
2022/09/29 01:42:19;;;;;;;5.38;4.32;;;10.50;99.90;;;;;;4929582;29;20028;-87
2022/09/29 01:44:52;;;;;;;4.40;4.00;;;10.50;99.90;;;;;;4929419;29;20032;-87
2022/09/29 01:47:30;;;;;;;6.15;5.57;;;10.40;99.90;;;;;;4929306;29;20055;-88
2022/09/29 01:50:09;;;;;;;4.85;4.40;;;10.40;99.90;;;;;;4929270;29;20031;-86
2022/09/29 01:52:42;;;;;;;5.90;5.33;;;10.40;99.90;;;;;;4928999;29;20406;-88
2022/09/29 01:55:15;;;;;;;4.72;4.32;;;10.40;99.90;;;;;;4911474;29;20039;-87
2022/09/29 01:57:53;;;;;;;4.57;4.18;;;10.40;99.90;;;;;;4925931;29;20068;-89
2022/09/29 02:00:22;;;;;;;5.72;3.55;;;10.40;99.90;;;;;;4894672;29;20048;-89
2022/09/29 02:03:23;;;;;;;5.28;4.88;;;10.40;99.90;;;;;;4911140;29;20076;-87
2022/09/29 02:06:00;;;;;;;4.93;4.43;;;10.40;99.90;;;;;;4911311;29;20032;-87
2022/09/29 02:08:37;;;;;;;5.90;4.20;;;10.40;99.90;;;;;;4917631;29;20032;-87
2022/09/29 02:11:09;;;;;;;5.50;5.07;;;10.30;99.90;;;;;;4928970;29;20474;-88
2022/09/29 02:13:39;;;;;;;4.45;4.05;;;10.30;99.90;;;;;;4928547;29;20047;-87
2022/09/29 02:16:10;;;;;;;4.38;4.07;;;10.30;99.90;;;;;;4928796;29;20099;-87
2022/09/29 02:19:02;;;;;;;5.45;4.35;;;10.30;99.90;;;;;;4929029;29;20561;-87
2022/09/29 02:21:27;;;;;;;5.55;4.97;;;10.30;99.90;;;;;;4917964;29;20052;-88
2022/09/29 02:23:54;;;;;;;6.93;4.20;;;10.30;99.90;;;;;;4909869;29;20032;-88
2022/09/29 02:26:21;;;;;;;4.43;4.13;;;10.30;99.90;;;;;;4894152;29;20061;-88
2022/09/29 02:28:47;;;;;;;4.35;3.90;;;10.20;99.90;;;;;;4910881;29;20067;-87
2022/09/29 02:31:14;;;;;;;6.03;5.55;;;10.20;99.90;;;;;;4912997;29;20103;-88
2022/09/29 02:33:39;;;;;;;10.55;5.32;;;10.20;99.90;;;;;;4929729;29;20079;-89
2022/09/29 02:36:27;;;;;;;4.82;4.43;;;10.20;99.90;;;;;;4928628;29;20529;-87
2022/09/29 02:39:13;;;;;;;6.25;4.03;;;10.20;99.90;;;;;;4928649;29;20393;-86
2022/09/29 02:41:55;;;;;;;5.53;4.93;;;10.20;99.90;;;;;;4928636;29;20088;-87
2022/09/29 02:44:39;;;;;;;5.35;3.67;;;10.20;99.90;;;;;;4928636;29;20032;-87
2022/09/29 02:47:31;;;;;;;4.82;4.00;;;10.10;99.90;;;;;;4928351;29;20040;-88
2022/09/29 02:50:26;;;;;;;5.88;5.30;;;10.10;99.90;;;;;;4911436;29;20072;-86
2022/09/29 02:53:22;;;;;;;5.30;4.80;;;10.10;99.90;;;;;;4928502;29;20028;-88
2022/09/29 02:56:02;;;;;;;5.45;4.95;;;10.10;99.90;;;;;;4929551;29;20115;-87
2022/09/29 02:58:52;;;;;;;5.75;5.30;;;10.10;99.90;;;;;;4928329;29;20032;-88
2022/09/29 03:01:18;;;;;;;5.45;4.38;;;10.10;99.90;;;;;;4927869;29;20028;-88
2022/09/29 03:03:44;;;;;;;4.93;4.53;;;10.10;99.90;;;;;;4928373;29;20059;-88
2022/09/29 03:06:11;;;;;;;5.93;5.43;;;10.10;99.90;;;;;;4928282;29;20047;-87
2022/09/29 03:08:36;;;;;;;5.72;5.13;;;10.10;99.90;;;;;;4928296;29;20032;-87
2022/09/29 03:11:03;;;;;;;4.50;3.70;;;10.10;99.90;;;;;;4928165;29;20075;-87
2022/09/29 03:13:29;;;;;;;5.88;4.10;;;10.00;99.90;;;;;;4928110;29;20360;-87
2022/09/29 03:15:54;;;;;;;9.43;5.10;;;10.10;99.90;;;;;;4896964;29;20107;-87
2022/09/29 03:18:22;;;;;;;5.32;4.85;;;10.00;99.90;;;;;;4927904;29;20035;-87
2022/09/29 03:20:48;;;;;;;5.28;4.78;;;10.00;99.90;;;;;;4930831;29;20048;-88
2022/09/29 03:23:14;;;;;;;6.85;4.82;;;10.00;99.90;;;;;;4916109;29;20055;-88
2022/09/29 03:25:42;;;;;;;6.00;5.50;;;10.00;99.90;;;;;;4916577;29;20048;-88
2022/09/29 03:28:08;;;;;;;5.00;4.60;;;10.00;99.90;;;;;;4931659;29;20036;-87
2022/09/29 03:30:33;;;;;;;5.75;5.35;;;10.00;99.90;;;;;;4932968;29;20040;-88
2022/09/29 03:32:59;;;;;;;6.05;5.55;;;10.00;99.90;;;;;;4914981;29;20426;-87
2022/09/29 03:35:25;;;;;;;5.72;5.22;;;10.00;99.90;;;;;;4915744;29;20040;-87
2022/09/29 03:37:57;;;;;;;7.07;4.97;;;10.00;99.90;;;;;;4914977;29;20033;-87
2022/09/29 03:40:22;;;;;;;4.82;4.35;;;9.90;99.90;;;;;;4912746;29;20052;-87
2022/09/29 03:42:48;;;;;;;5.30;4.82;;;10.00;99.90;;;;;;4897136;29;20039;-87
2022/09/29 03:45:14;;;;;;;8.85;5.47;;;9.90;99.90;;;;;;4896904;29;20047;-88
2022/09/29 03:47:40;;;;;;;5.07;4.68;;;9.90;99.90;;;;;;4929830;29;20054;-87
2022/09/29 03:50:06;;;;;;;6.15;5.72;;;10.00;99.90;;;;;;4931481;29;20036;-87
2022/09/29 03:52:32;;;;;;;7.47;5.30;;;9.90;99.90;;;;;;4931322;29;20024;-88
2022/09/29 03:54:58;;;;;;;4.78;4.30;;;9.90;99.90;;;;;;4931422;29;20100;-87
2022/09/29 03:57:24;;;;;;;5.45;5.00;;;9.90;99.90;;;;;;4915536;29;20108;-87
2022/09/29 03:59:52;;;;;;;7.05;5.18;;;9.90;99.90;;;;;;4932358;29;20028;-87
2022/09/29 04:02:18;;;;;;;5.90;5.40;;;9.90;99.90;;;;;;4915568;29;20036;-87
2022/09/29 04:04:44;;;;;;;5.50;5.05;;;9.80;99.90;;;;;;4932301;29;20096;-87
2022/09/29 04:07:10;;;;;;;4.65;4.25;;;9.80;99.90;;;;;;4915528;29;20032;-88
2022/09/29 04:09:36;;;;;;;6.75;4.80;;;9.90;99.90;;;;;;4915333;29;20044;-87
2022/09/29 04:12:02;;;;;;;6.07;5.55;;;9.80;99.90;;;;;;4930952;29;20513;-86
2022/09/29 04:14:27;;;;;;;8.05;7.35;;;9.80;99.90;;;;;;4931029;29;20034;-87
2022/09/29 04:16:53;;;;;;;8.25;7.40;;;9.80;99.90;;;;;;4931495;29;20095;-87
2022/09/29 04:19:19;;;;;;;7.32;6.63;;;9.80;99.90;;;;;;4930685;29;20061;-87
2022/09/29 04:21:45;;;;;;;8.05;6.75;;;9.70;99.90;;;;;;4924907;29;20045;-87
2022/09/29 04:24:11;;;;;;;7.32;5.85;;;9.80;99.90;;;;;;4915459;29;20172;-87
2022/09/29 04:26:38;;;;;;;6.70;6.10;;;9.80;99.90;;;;;;4911715;29;20039;-87
2022/09/29 04:29:05;;;;;;;7.03;6.47;;;9.70;99.90;;;;;;4896180;29;20442;-87
2022/09/29 04:31:31;;;;;;;10.32;5.50;;;9.70;99.90;;;;;;4911137;29;20088;-88
2022/09/29 04:33:57;;;;;;;6.57;5.97;;;9.70;99.90;;;;;;4929421;29;20450;-87
2022/09/29 04:36:22;;;;;;;6.85;5.43;;;9.70;99.90;;;;;;4930594;29;20028;-87
2022/09/29 04:38:50;;;;;;;6.55;5.95;;;9.70;99.90;;;;;;4899089;29;20044;-89
2022/09/29 04:41:17;;;;;;;10.35;6.88;;;9.70;99.90;;;;;;4931139;29;20024;-87
2022/09/29 04:43:42;;;;;;;8.30;6.25;;;9.70;99.90;;;;;;4930442;29;20026;-87
2022/09/29 04:46:10;;;;;;;8.27;7.43;;;9.70;99.90;;;;;;4931515;29;20119;-88
2022/09/29 04:48:36;;;;;;;7.07;6.30;;;9.70;99.90;;;;;;4930171;29;20040;-88
2022/09/29 04:51:03;;;;;;;6.90;6.20;;;9.60;99.90;;;;;;4930301;29;20063;-88
2022/09/29 04:53:29;;;;;;;7.28;4.90;;;9.60;99.90;;;;;;4931300;29;20040;-87
2022/09/29 04:55:55;;;;;;;7.30;5.97;;;9.60;99.90;;;;;;4930220;29;20032;-87
2022/09/29 04:58:21;;;;;;;8.98;5.82;;;9.60;99.90;;;;;;4930640;29;20028;-87
2022/09/29 05:00:47;;;;;;;8.80;5.88;;;9.60;99.90;;;;;;4913227;29;20039;-88
2022/09/29 05:03:13;;;;;;;8.20;6.40;;;9.60;99.90;;;;;;4929720;29;20025;-87
2022/09/29 05:05:38;;;;;;;5.47;5.07;;;9.60;99.90;;;;;;4929796;29;20016;-88
2022/09/29 05:08:05;;;;;;;5.53;5.05;;;9.50;99.90;;;;;;4929335;29;20036;-87
2022/09/29 05:10:31;;;;;;;8.75;5.85;;;9.60;99.90;;;;;;4927115;29;20040;-87
2022/09/29 05:12:57;;;;;;;11.93;5.97;;;9.60;99.90;;;;;;4930891;29;20020;-86
2022/09/29 05:15:23;;;;;;;8.20;4.72;;;9.60;99.90;;;;;;4924225;29;20051;-86
2022/09/29 05:17:50;;;;;;;6.57;5.53;;;9.60;99.90;;;;;;4928440;29;20033;-87
2022/09/29 05:20:16;;;;;;;6.65;5.63;;;9.50;99.90;;;;;;4913878;29;20028;-87
2022/09/29 05:22:42;;;;;;;11.32;5.40;;;9.60;99.90;;;;;;4927986;29;20397;-87
2022/09/29 05:25:08;;;;;;;7.15;6.45;;;9.50;99.90;;;;;;4916253;29;20457;-87
2022/09/29 05:27:37;;;;;;;5.25;4.85;;;9.50;99.90;;;;;;4927756;29;20048;-85
2022/09/29 05:30:03;;;;;;;7.85;5.47;;;9.50;99.90;;;;;;4893382;29;20044;-87
2022/09/29 05:32:29;;;;;;;6.82;6.03;;;9.50;99.90;;;;;;4909608;29;20116;-87
2022/09/29 05:34:56;;;;;;;7.45;5.32;;;9.50;99.90;;;;;;4913624;29;20036;-87
2022/09/29 05:37:22;;;;;;;5.40;4.93;;;9.50;99.90;;;;;;4913325;29;20032;-87
2022/09/29 05:39:48;;;;;;;5.88;5.38;;;9.50;99.90;;;;;;4928960;29;20391;-86
2022/09/29 05:42:14;;;;;;;5.35;4.93;;;9.50;99.90;;;;;;4930288;29;20096;-86
2022/09/29 05:44:40;;;;;;;5.28;4.75;;;9.50;99.90;;;;;;4913004;29;20027;-87
2022/09/29 05:47:06;;;;;;;6.20;5.57;;;9.50;99.90;;;;;;4928358;29;20032;-87
2022/09/29 05:49:32;;;;;;;6.30;5.80;;;9.50;99.90;;;;;;4913298;29;20068;-87
2022/09/29 05:51:58;;;;;;;7.65;6.07;;;9.50;99.90;;;;;;4929958;29;20028;-87
2022/09/29 05:54:26;;;;;;;6.18;5.53;;;9.50;99.90;;;;;;4928499;29;20075;-88
2022/09/29 05:56:52;;;;;;;6.72;6.03;;;9.50;99.90;;;;;;4944398;29;20118;-87
2022/09/29 05:59:19;;;;;;;6.75;6.05;;;9.50;99.90;;;;;;4912929;29;20052;-88
2022/09/29 06:01:54;;;;;;;12.10;7.93;;;9.50;99.90;;;;;;4913503;29;20069;-85
2022/09/29 06:04:19;;;;;;;6.43;5.53;;;9.40;99.90;;;;;;4928600;29;20036;-84
2022/09/29 06:06:46;;;;;;;9.02;5.75;;;9.40;99.90;;;;;;4928674;29;20039;-84
2022/09/29 06:09:12;;;;;;;7.57;5.90;;;9.40;99.90;;;;;;4928341;29;20054;-85
2022/09/29 06:11:37;;;;;;;15.82;8.82;;;9.40;99.90;;;;;;4930242;29;20474;-85
2022/09/29 06:14:03;;;;;;;9.10;4.88;;;9.40;99.90;;;;;;4912515;29;20032;-85
2022/09/29 06:16:31;;;;;;;6.53;5.93;;;9.40;99.90;;;;;;4913830;29;20032;-87
2022/09/29 06:18:58;;;;;;;10.75;7.07;;;9.40;99.90;;;;;;4914259;29;20017;-87
2022/09/29 06:21:27;;;;;;;7.47;5.68;;;9.80;99.90;;;;;;4927496;29;20044;-87
2022/09/29 06:23:55;;;;;;;7.93;6.40;;;9.40;99.90;;;;;;4929784;29;20039;-87
2022/09/29 06:26:21;;;;;;;9.70;6.43;;;9.40;99.90;;;;;;4929437;29;20036;-87
2022/09/29 06:28:47;;;;;;;10.68;6.22;;;9.40;99.90;;;;;;4929332;29;20077;-87
2022/09/29 06:31:19;;;;;;;6.20;5.65;;;9.40;99.90;;;;;;4929371;29;20036;-87
2022/09/29 06:33:45;;;;;;;11.43;7.28;;;9.40;99.90;;;;;;4912589;29;20496;-87
2022/09/29 06:39:13;;;;;;;7.75;5.85;;;9.40;99.90;;;;;;4928551;29;20087;-87
2022/09/29 06:41:40;;;;;;;16.17;6.15;;;9.40;99.90;;;;;;4930394;29;20028;-87
2022/09/29 06:44:07;;;;;;;7.32;5.78;;;9.40;99.90;;;;;;4930167;29;20382;-87
2022/09/29 06:46:34;;;;;;;7.25;6.55;;;9.40;99.90;;;;;;4944653;29;20032;-87
2022/09/29 06:49:00;;;;;;;7.53;6.03;;;9.40;99.90;;;;;;4930429;29;20063;-87
2022/09/29 06:51:26;;;;;;;8.80;6.95;;;9.50;99.90;;;;;;4913255;29;20032;-87
2022/09/29 06:53:51;;;;;;;5.93;5.22;;;9.50;99.90;;;;;;4928602;29;20071;-87
2022/09/29 06:56:18;;;;;;;5.90;5.32;;;9.50;99.90;;;;;;4912201;29;20044;-87
2022/09/29 06:58:45;;;;;;;6.45;5.88;;;9.50;99.90;;;;;;4929827;29;20024;-87
2022/09/29 07:01:11;;;;;;;8.88;6.97;;;9.50;99.90;;;;;;4912993;29;20036;-88
2022/09/29 07:03:37;;;;;;;7.00;6.45;;;9.50;99.90;;;;;;4944335;29;20398;-88
2022/09/29 07:06:08;;;;;;;6.80;5.45;;;9.50;99.90;;;;;;4944491;29;20020;-87
2022/09/29 07:08:37;;;;;;;5.85;5.43;;;9.50;99.90;;;;;;4928526;29;20043;-88
2022/09/29 07:11:03;;;;;;;5.63;5.15;;;9.50;99.90;;;;;;4929642;29;20040;-87
2022/09/29 07:13:29;;;;;;;6.82;6.15;;;9.60;99.90;;;;;;4912672;29;20413;-87
2022/09/29 07:15:55;;;;;;;6.30;5.75;;;9.60;99.90;;;;;;4928342;29;20111;-88
2022/09/29 07:18:21;;;;;;;10.55;6.93;;;9.60;99.90;;;;;;4897014;29;20056;-89
2022/09/29 07:20:47;;;;;;;22.52;7.15;;;9.60;99.90;;;;;;4928224;29;20048;-88
2022/09/29 07:23:13;;;;;;;9.30;6.50;;;9.70;99.90;;;;;;4928211;29;20064;-89
2022/09/29 07:25:39;;;;;;;6.68;6.05;;;9.70;99.90;;;;;;4928250;29;20036;-89
2022/09/29 07:28:05;;;;;;;10.45;5.40;;;9.80;99.90;;;;;;4928129;29;20036;-88
2022/09/29 07:30:30;;;;;;;8.55;6.07;;;9.80;99.90;;;;;;4928363;29;20076;-88
2022/09/29 07:32:56;;;;;;;7.25;6.57;;;9.80;99.90;;;;;;4912263;29;20032;-88
2022/09/29 07:35:23;;;;;;;8.70;5.55;;;9.80;99.90;;;;;;4927969;29;20038;-88
2022/09/29 07:37:53;;;;;;;10.73;5.32;;;9.90;99.90;;;;;;4927884;29;20059;-88
2022/09/29 07:40:23;;;;;;;8.55;5.43;;;9.90;99.90;;;;;;4928215;29;20035;-88
2022/09/29 07:42:49;;;;;;;6.80;5.22;;;9.90;99.90;;;;;;4929397;29;20043;-87
2022/09/29 07:45:15;;;;;;;7.43;5.82;;;10.00;99.90;;;;;;4928168;29;20024;-89
2022/09/29 07:47:42;;;;;;;7.60;6.95;;;10.00;99.90;;;;;;4929608;29;20032;-88
2022/09/29 07:50:08;;;;;;;7.57;5.22;;;10.00;99.90;;;;;;4928434;29;20373;-88
2022/09/29 07:52:34;;;;;;;9.27;5.70;;;10.10;99.90;;;;;;4927726;29;20398;-89
2022/09/29 07:55:01;;;;;;;7.90;5.30;;;10.10;99.90;;;;;;4928088;29;20036;-89
2022/09/29 07:57:27;;;;;;;6.03;5.35;;;10.20;99.90;;;;;;4929300;29;20032;-89
2022/09/29 07:59:53;;;;;;;9.55;6.00;;;10.20;99.90;;;;;;4929507;29;20130;-91
2022/09/29 08:02:23;;;;;;;6.97;5.15;;;10.20;99.90;;;;;;4931929;29;20052;-91
2022/09/29 08:04:49;;;;;;;7.20;5.93;;;10.20;99.90;;;;;;4930725;29;20040;-91
2022/09/29 08:07:15;;;;;;;6.40;5.90;;;10.30;99.90;;;;;;4931159;29;20024;-90
2022/09/29 08:09:41;;;;;;;6.85;4.97;;;10.30;99.90;;;;;;4933668;29;20036;-90
2022/09/29 08:12:08;;;;;;;7.65;5.35;;;10.40;99.90;;;;;;4918323;29;20079;-91
2022/09/29 08:14:34;;;;;;;6.32;4.82;;;10.40;99.90;;;;;;4933971;29;20034;-90
2022/09/29 08:17:00;;;;;;;9.07;5.28;;;;;;;;;;4918522;29;20028;-90
2022/09/29 08:19:27;;;;;;;8.90;5.75;;;10.50;99.90;;;;;;4933924;29;20446;-91
2022/09/29 08:21:53;;;;;;;6.35;5.32;;;10.50;99.90;;;;;;4935374;29;20076;-90
2022/09/29 08:24:19;;;;;;;12.40;5.72;;;;;;;;;;4932582;29;20095;-89
2022/09/29 08:26:45;;;;;;;9.15;6.50;;;10.60;99.90;;;;;;4930964;29;20036;-90
2022/09/29 08:29:14;;;;;;;4.90;4.45;;;10.60;99.90;;;;;;4932233;29;20055;-89
2022/09/29 08:31:42;;;;;;;6.32;5.43;;;10.70;99.90;;;;;;4930955;29;20028;-90
2022/09/29 08:34:08;;;;;;;5.07;4.35;;;10.70;99.90;;;;;;4930757;29;20028;-90
2022/09/29 08:36:35;;;;;;;6.40;4.88;;;10.80;99.90;;;;;;4930638;29;20038;-89
2022/09/29 08:39:02;;;;;;;5.40;4.15;;;10.90;99.90;;;;;;4930517;29;20131;-88
2022/09/29 08:41:45;;;;;;;5.80;5.30;;;10.90;99.90;;;;;;4929170;29;20028;-90
2022/09/29 08:44:29;;;;;;;5.70;4.32;;;11.00;99.90;;;;;;4930714;29;20028;-89
2022/09/29 08:47:29;;;;;;;5.15;4.30;;;11.10;99.90;;;;;;4931460;29;20059;-90
2022/09/29 08:50:01;;;;;;;;;;;11.10;99.90;;;;;;4931245;29;20117;-90
2022/09/29 08:52:32;;;;;;;8.18;5.80;;;11.20;99.90;;;;;;4930529;29;20451;-90
2022/09/29 08:55:15;;;;;;;;;;;11.20;99.90;;;;;;4932140;29;20024;-90
2022/09/29 08:57:42;;;;;;;10.90;5.72;;;11.20;99.90;;;;;;4931535;29;19915;-89
2022/09/29 09:00:17;;;;;;;6.43;4.47;;;11.30;99.90;;;;;;4930674;29;20024;-90
2022/09/29 09:02:58;;;;;;;5.57;4.65;;;11.30;99.90;;;;;;4930224;29;20060;-89
2022/09/29 09:05:48;;;;;;;4.05;3.75;;;11.40;99.90;;;;;;4930006;29;20028;-89
2022/09/29 09:08:50;;;;;;;11.88;4.82;;;11.40;99.90;;;;;;4930330;29;20537;-89
2022/09/29 09:11:40;;;;;;;5.43;4.70;;;11.50;99.90;;;;;;4914711;29;20032;-89
2022/09/29 09:14:20;;;;;;;5.82;5.15;;;11.60;99.90;;;;;;4927547;29;20044;-90
2022/09/29 09:17:09;;;;;;;8.75;4.53;;;11.70;99.90;;;;;;4914281;29;20090;-90
2022/09/29 09:19:56;;;;;;;5.15;4.55;;;11.80;99.90;;;;;;4929658;29;20123;-90
2022/09/29 09:22:38;;;;;;;9.57;4.88;;;11.80;99.90;;;;;;4913984;29;20449;-90
2022/09/29 09:25:27;;;;;;;6.55;4.65;;;11.90;99.90;;;;;;4914296;29;20032;-89
2022/09/29 09:28:15;;;;;;;11.55;6.15;;;11.90;99.90;;;;;;4929837;29;20462;-90
2022/09/29 09:31:05;;;;;;;4.63;3.75;;;12.00;99.90;;;;;;4914221;29;20516;-89
2022/09/29 09:33:40;;;;;;;6.07;2.75;;;12.00;99.90;;;;;;4914414;29;20036;-90
2022/09/29 09:36:27;;;;;;;5.28;3.55;;;12.10;99.90;;;;;;4929817;29;20500;-89
2022/09/29 09:38:59;;;;;;;12.50;5.97;;;12.10;99.90;;;;;;4929491;29;20486;-90
2022/09/29 09:41:27;;;;;;;6.90;4.05;;;12.20;99.90;;;;;;4914303;29;20053;-88
2022/09/29 09:44:26;;;;;;;7.10;4.85;;;12.30;99.90;;;;;;4930735;29;20028;-89
2022/09/29 09:47:00;;;;;;;6.72;4.97;;;12.40;99.90;;;;;;4906678;29;20040;-89
2022/09/29 09:49:38;;;;;;;8.38;4.68;;;12.40;99.90;;;;;;4929742;29;20396;-91
2022/09/29 09:52:21;;;;;;;9.32;5.55;;;12.50;99.90;;;;;;4929506;29;20039;-90
2022/09/29 09:54:57;;;;;;;5.90;5.05;;;12.50;99.90;;;;;;4929392;29;20078;-90
2022/09/29 09:57:48;;;;;;;8.10;6.35;;;12.60;99.90;;;;;;4929466;29;20035;-90
2022/09/29 10:00:22;;;;;;;4.93;3.75;;;12.60;99.90;;;;;;4913661;29;20036;-90
2022/09/29 10:02:50;;;;;;;11.85;6.53;;;12.60;99.90;;;;;;4929221;29;20397;-91
2022/09/29 10:05:19;;;;;;;6.22;4.57;;;12.70;99.90;;;;;;4929475;29;20024;-91
2022/09/29 10:07:47;;;;;;;9.57;5.03;;;12.70;99.90;;;;;;4929165;29;20036;-90
2022/09/29 10:10:18;;;;;;;5.07;4.10;;;12.70;99.90;;;;;;4929416;29;20032;-90
2022/09/29 10:12:44;;;;;;;10.45;6.05;;;12.90;99.90;;;;;;4929758;29;20474;-91
2022/09/29 10:15:22;;;;;;;5.95;5.03;;;12.90;99.90;;;;;;4930458;29;20028;-90
2022/09/29 10:17:58;;;;;;;7.30;5.40;;;13.00;99.90;;;;;;4913999;29;20099;-90
2022/09/29 10:20:33;;;;;;;10.32;3.50;;;13.00;99.90;;;;;;4928858;29;20083;-90
2022/09/29 10:23:18;;;;;;;5.38;3.90;;;13.00;99.90;;;;;;4930143;29;20028;-90
2022/09/29 10:26:11;;;;;;;10.27;5.25;;;12.90;99.90;;;;;;4929111;29;20039;-90
2022/09/29 10:29:00;;;;;;;6.38;4.00;;;12.90;99.90;;;;;;4913261;29;20043;-90
2022/09/29 10:31:27;;;;;;;6.72;4.35;;;12.90;99.90;;;;;;4927946;29;20470;-90
2022/09/29 10:34:14;;;;;;;6.05;4.32;;;12.80;99.90;;;;;;4929000;29;20032;-91
2022/09/29 10:36:56;;;;;;;4.20;3.20;;;12.80;99.90;;;;;;4929001;29;20035;-90
2022/09/29 10:39:49;;;;;;;7.05;4.22;;;12.80;99.90;;;;;;4929301;29;20028;-90
2022/09/29 10:42:23;;;;;;;6.50;4.38;;;12.70;99.90;;;;;;4911441;29;20043;-90
2022/09/29 10:44:59;;;;;;;4.82;3.83;;;12.70;99.90;;;;;;4928826;29;20035;-90
2022/09/29 10:47:25;;;;;;;5.47;3.70;;;12.60;99.90;;;;;;4928925;29;20099;-89
2022/09/29 10:50:28;;;;;;;3.10;2.53;;;12.60;99.90;;;;;;4928834;29;20470;-90
2022/09/29 10:52:57;;;;;;;3.60;3.17;;;12.60;99.90;;;;;;4877648;29;20474;-89
2022/09/29 10:55:30;;;;;;;11.77;4.88;;;12.70;99.90;;;;;;4921953;29;20037;-90
2022/09/29 10:57:59;;;;;;;7.47;2.90;;;12.80;99.90;;;;;;4929682;29;20039;-89
2022/09/29 11:00:37;;;;;;;6.68;3.25;;;12.80;99.90;;;;;;4928381;29;20028;-91
2022/09/29 11:03:25;;;;;;;2.88;2.65;;;12.80;99.90;;;;;;4929047;29;20028;-91
2022/09/29 11:05:58;;;;;;;3.88;2.65;;;12.90;99.90;;;;;;4928564;29;20032;-90
2022/09/29 11:08:26;;;;;;;3.33;3.03;;;12.90;99.90;;;;;;4928771;29;20104;-89
2022/09/29 11:11:26;;;;;;;3.00;2.38;;;12.90;99.90;;;;;;4928636;29;20032;-89
2022/09/29 11:13:52;;;;;;;6.07;3.65;;;12.90;99.90;;;;;;4928563;29;20032;-90
2022/09/29 11:16:29;;;;;;;7.20;4.05;;;12.90;99.90;;;;;;4928394;29;20032;-90
2022/09/29 11:19:09;;;;;;;4.28;2.85;;;12.90;99.90;;;;;;4914728;29;20075;-90
2022/09/29 11:21:41;;;;;;;5.05;3.72;;;12.90;99.90;;;;;;4928202;29;20387;-89
2022/09/29 11:24:40;;;;;;;2.90;2.67;;;12.90;99.90;;;;;;4912725;29;20036;-90
2022/09/29 11:27:25;;;;;;;3.40;3.10;;;13.00;99.90;;;;;;4901945;29;20394;-90
2022/09/29 11:30:11;;;;;;;10.50;5.25;;;12.90;99.90;;;;;;4927994;29;20036;-90
2022/09/29 11:33:07;;;;;;;35.28;8.15;;;12.90;99.90;;;;;;4912583;29;20076;-90
2022/09/29 11:35:51;;;;;;;33.25;5.90;;;12.80;99.90;;;;;;4912602;29;20119;-90
2022/09/29 11:38:49;;;;;;;38.95;5.43;;;12.80;99.90;;;;;;4912350;29;20040;-90
2022/09/29 11:41:15;;;;;;;18.35;6.30;;;12.80;99.90;;;;;;4902769;29;20099;-90
2022/09/29 11:44:03;;;;;;;24.67;4.32;;;12.80;99.90;;;;;;4931528;29;20076;-89
2022/09/29 11:46:52;;;;;;;11.45;4.20;;;12.80;99.90;;;;;;4931622;29;20032;-90
2022/09/29 11:49:20;;;;;;;16.55;5.13;;;12.70;99.90;;;;;;4912679;29;20042;-90
2022/09/29 11:52:05;;;;;;;51.15;12.93;;;12.80;99.90;;;;;;4931652;29;20032;-89
2022/09/29 11:54:37;;;;;;;26.63;8.30;;;12.70;99.90;;;;;;4915994;29;20103;-89
2022/09/29 11:57:18;;;;;;;35.83;7.57;;;12.70;99.90;;;;;;4931613;29;20064;-89
2022/09/29 12:00:03;;;;;;;65.18;9.90;;;12.70;99.90;;;;;;4931338;29;20028;-90
2022/09/29 12:02:51;;;;;;;25.15;8.98;;;12.70;99.90;;;;;;4931592;29;20558;-90
2022/09/29 12:05:32;;;;;;;16.38;8.07;;;12.70;99.90;;;;;;4915720;29;20422;-89
2022/09/29 12:08:12;;;;;;;17.98;5.45;;;12.70;99.90;;;;;;4931602;29;20040;-90
2022/09/29 12:11:00;;;;;;;60.88;9.48;;;12.80;99.90;;;;;;4931653;29;20040;-88
2022/09/29 12:13:35;;;;;;;45.67;10.95;;;12.90;99.90;;;;;;4931871;29;20028;-88
2022/09/29 12:16:02;;;;;;;29.73;6.95;;;13.00;99.90;;;;;;4931014;29;20032;-89
2022/09/29 12:18:51;;;;;;;23.70;7.15;;;13.00;99.90;;;;;;4915352;29;20036;-89
2022/09/29 12:21:31;;;;;;;25.20;5.85;;;13.10;99.90;;;;;;4932365;29;20040;-89
2022/09/29 12:24:00;;;;;;;29.08;7.82;;;13.20;99.90;;;;;;4931160;29;20028;-88
2022/09/29 12:26:26;;;;;;;17.15;5.68;;;13.20;99.90;;;;;;4915756;29;20063;-88
2022/09/29 12:29:07;;;;;;;23.75;5.55;;;13.30;99.90;;;;;;4914852;29;20469;-87
2022/09/29 12:31:46;;;;;;;21.98;8.15;;;13.30;99.90;;;;;;4931175;29;20047;-88
2022/09/29 12:34:24;;;;;;;18.45;6.47;;;13.40;99.90;;;;;;4930848;29;20035;-88
2022/09/29 12:37:04;;;;;;;11.02;3.90;;;13.40;99.90;;;;;;4915188;29;20039;-88
2022/09/29 12:39:55;;;;;;;10.38;4.32;;;13.30;99.90;;;;;;4930904;29;20032;-89
2022/09/29 12:42:35;;;;;;;10.30;4.20;;;13.40;99.90;;;;;;4931155;29;20024;-88
2022/09/29 12:45:15;;;;;;;5.70;3.83;;;13.40;99.90;;;;;;4930477;29;20036;-88
2022/09/29 12:48:13;;;;;;;12.27;4.25;;;13.40;99.90;;;;;;4915274;29;20039;-89
2022/09/29 12:50:53;;;;;;;17.50;4.20;;;13.50;99.90;;;;;;4911093;29;20044;-90
2022/09/29 12:53:27;;;;;;;7.75;2.60;;;13.50;99.90;;;;;;4929778;29;20032;-88
2022/09/29 12:56:00;;;;;;;7.53;3.20;;;13.50;99.90;;;;;;4915005;29;20131;-89
2022/09/29 12:58:38;;;;;;;6.47;2.67;;;13.50;99.90;;;;;;4930237;29;20088;-89
2022/09/29 13:01:26;;;;;;;9.40;2.83;;;13.50;99.90;;;;;;4914462;29;20031;-88
2022/09/29 13:04:17;;;;;;;6.47;2.92;;;13.50;99.90;;;;;;4930493;29;20039;-88
2022/09/29 13:07:16;;;;;;;2.20;1.90;;;13.60;99.90;;;;;;4914927;29;20036;-88
2022/09/29 13:10:12;;;;;;;3.28;1.27;;;13.60;99.90;;;;;;4914679;29;20032;-87
2022/09/29 13:12:41;;;;;;;7.20;2.70;;;13.60;99.90;;;;;;4930311;29;20029;-89
2022/09/29 13:15:37;;;;;;;5.30;2.03;;;13.60;99.90;;;;;;4930024;29;20112;-89
2022/09/29 13:18:20;;;;;;;4.35;1.73;;;13.60;99.90;;;;;;4914221;29;20412;-89
2022/09/29 13:21:11;;;;;;;5.00;2.17;;;13.70;99.90;;;;;;4930014;29;20048;-89
2022/09/29 13:24:05;;;;;;;3.58;1.77;;;13.60;99.90;;;;;;4930077;29;20035;-88